createdAt,value
2023-02-06T00:01:50.341Z,45.42
2023-02-06T00:04:17.964Z,49.67
2023-02-06T00:06:45.511Z,46.70
2023-02-06T00:09:12.832Z,53.20
2023-02-06T00:11:40.178Z,43.23
2023-02-06T00:14:07.560Z,45.97
2023-02-06T00:16:35.830Z,44.70
2023-02-06T00:19:04.272Z,43.07
2023-02-06T00:21:31.648Z,47.10
2023-02-06T00:24:01.961Z,48.23
2023-02-06T00:26:31.252Z,43.85
2023-02-06T00:28:58.554Z,50.70
2023-02-06T00:31:25.897Z,45.63
2023-02-06T00:33:53.305Z,45.07
2023-02-06T00:36:20.576Z,46.10
2023-02-06T00:38:47.977Z,44.23
2023-02-06T00:41:15.369Z,45.53
2023-02-06T00:43:43.680Z,50.83
2023-02-06T00:46:10.979Z,47.87
2023-02-06T00:48:38.315Z,54.17
2023-02-06T00:51:05.890Z,53.73
2023-02-06T00:53:33.185Z,49.40
2023-02-06T00:56:00.348Z,72.43
2023-02-06T00:58:27.682Z,70.43
2023-02-06T01:00:54.922Z,68.27
2023-02-06T01:03:23.792Z,52.87
2023-02-06T01:05:51.116Z,66.73
2023-02-06T01:08:18.380Z,51.90
2023-02-06T01:10:46.009Z,62.20
2023-02-06T01:13:13.698Z,59.57
2023-02-06T01:15:41.741Z,59.53
2023-02-06T01:18:09.002Z,64.17
2023-02-06T01:20:40.037Z,63.43
2023-02-06T01:23:07.528Z,57.53
2023-02-06T01:25:35.090Z,60.03
2023-02-06T01:28:02.476Z,55.90
2023-02-06T01:30:33.022Z,59.83
2023-02-06T01:33:00.384Z,65.40
2023-02-06T01:35:29.661Z,52.90
2023-02-06T01:37:56.974Z,61.17
2023-02-06T01:40:24.361Z,56.60
2023-02-06T01:42:51.581Z,64.40
2023-02-06T01:45:21.795Z,63.00
2023-02-06T01:47:57.979Z,59.70
2023-02-06T01:50:25.303Z,62.30
2023-02-06T01:52:52.884Z,65.80
2023-02-06T01:55:20.197Z,57.07
2023-02-06T01:57:47.438Z,60.97
2023-02-06T02:00:18.013Z,69.53
2023-02-06T02:02:49.112Z,81.40
2023-02-06T02:05:19.333Z,84.47
2023-02-06T02:08:03.588Z,81.90
2023-02-06T02:10:33.801Z,80.73
2023-02-06T02:13:01.079Z,79.50
2023-02-06T02:16:06.267Z,84.40
2023-02-06T02:18:54.972Z,75.93
2023-02-06T02:22:14.732Z,78.87
2023-02-06T02:25:15.767Z,82.05
2023-02-06T02:28:27.782Z,72.47
2023-02-06T02:31:38.851Z,79.93
2023-02-06T02:34:32.082Z,82.37
2023-02-06T02:37:09.381Z,71.03
2023-02-06T02:39:56.753Z,76.80
2023-02-06T02:42:35.724Z,82.33
2023-02-06T02:45:50.782Z,82.47
2023-02-06T02:48:29.963Z,65.60
2023-02-06T02:50:58.711Z,69.50
2023-02-06T02:53:33.604Z,83.60
2023-02-06T02:56:01.521Z,85.60
2023-02-06T02:58:34.208Z,83.53
2023-02-06T03:01:09.340Z,73.30
2023-02-06T03:03:40.077Z,80.10
2023-02-06T03:09:14.266Z,64.68
2023-02-06T03:11:50.443Z,78.67
2023-02-06T03:14:49.868Z,71.87
2023-02-06T03:17:33.526Z,73.47
2023-02-06T03:20:06.685Z,74.03
2023-02-06T03:22:37.006Z,74.20
2023-02-06T03:25:12.152Z,80.55
2023-02-06T03:27:42.856Z,71.90
2023-02-06T03:30:14.216Z,79.77
2023-02-06T03:32:46.947Z,65.83
2023-02-06T03:35:22.486Z,72.60
2023-02-06T03:37:50.338Z,61.70
2023-02-06T03:40:18.648Z,70.40
2023-02-06T03:43:02.955Z,63.73
2023-02-06T03:45:45.608Z,66.50
2023-02-06T03:48:29.913Z,70.03
2023-02-06T03:51:03.389Z,78.17
2023-02-06T03:53:32.986Z,68.10
2023-02-06T03:56:10.084Z,69.87
2023-02-06T03:58:37.702Z,75.53
2023-02-06T04:01:07.404Z,69.57
2023-02-06T04:03:35.083Z,62.03
2023-02-06T04:06:02.350Z,76.13
2023-02-06T04:08:29.583Z,69.67
2023-02-06T04:10:56.865Z,82.73
2023-02-06T04:13:24.201Z,81.30
2023-02-06T04:15:51.614Z,80.30
2023-02-06T04:18:18.901Z,73.23
2023-02-06T04:20:46.147Z,66.77
2023-02-06T04:23:13.482Z,70.47
2023-02-06T04:25:40.727Z,64.33
2023-02-06T04:28:08.311Z,65.17
2023-02-06T04:30:35.507Z,80.17
2023-02-06T04:33:03.019Z,82.63
2023-02-06T04:35:30.232Z,68.87
2023-02-06T04:37:57.472Z,76.43
2023-02-06T04:40:24.767Z,70.67
2023-02-06T04:42:52.085Z,60.67
2023-02-06T04:45:19.393Z,69.30
2023-02-06T04:47:49.557Z,64.57
2023-02-06T04:50:20.136Z,72.38
2023-02-06T04:55:14.503Z,69.93
2023-02-06T04:57:42.395Z,69.10
2023-02-06T05:00:10.658Z,80.17
2023-02-06T05:02:39.776Z,71.87
2023-02-06T05:05:09.596Z,73.23
2023-02-06T05:07:37.172Z,85.83
2023-02-06T05:10:04.770Z,86.53
2023-02-06T05:12:34.726Z,79.17
2023-02-06T05:15:01.985Z,92.35
2023-02-06T05:17:29.207Z,75.87
2023-02-06T05:19:58.780Z,84.83
2023-02-06T05:22:26.445Z,97.50
2023-02-06T05:24:53.991Z,111.20
2023-02-06T05:27:21.271Z,97.60
2023-02-06T05:29:48.608Z,103.00
2023-02-06T05:32:15.927Z,98.03
2023-02-06T05:34:46.130Z,114.90
2023-02-06T05:37:13.593Z,107.70
2023-02-06T05:39:40.724Z,103.53
2023-02-06T05:42:08.021Z,110.90
2023-02-06T05:44:35.277Z,98.43
2023-02-06T05:47:02.652Z,108.37
2023-02-06T05:49:30.014Z,98.37
2023-02-06T05:51:57.338Z,91.90
2023-02-06T05:54:24.792Z,102.90
2023-02-06T05:56:52.307Z,99.63
2023-02-06T05:59:19.889Z,103.33
2023-02-06T06:01:47.189Z,103.80
2023-02-06T06:04:15.226Z,112.83
2023-02-06T06:06:42.444Z,89.80
2023-02-06T06:09:09.869Z,91.90
2023-02-06T06:11:37.385Z,100.03
2023-02-06T06:14:05.892Z,92.30
2023-02-06T06:16:33.610Z,101.53
2023-02-06T06:19:01.931Z,89.50
2023-02-06T06:21:29.413Z,86.73
2023-02-06T06:23:56.971Z,101.20
2023-02-06T06:26:24.303Z,90.20
2023-02-06T06:28:51.409Z,97.87
2023-02-06T06:31:18.818Z,85.53
2023-02-06T06:33:46.364Z,90.00
2023-02-06T06:36:15.432Z,93.33
2023-02-06T06:38:42.803Z,97.73
2023-02-06T06:41:10.064Z,91.20
2023-02-06T06:43:37.509Z,97.53
2023-02-06T06:46:05.358Z,100.43
2023-02-06T06:48:33.161Z,102.87
2023-02-06T06:51:00.439Z,107.30
2023-02-06T06:53:27.671Z,114.47
2023-02-06T06:55:55.008Z,117.33
2023-02-06T06:58:22.259Z,115.30
2023-02-06T07:00:49.451Z,127.60
2023-02-06T07:03:16.730Z,118.27
2023-02-06T07:05:44.140Z,126.97
2023-02-06T07:08:11.383Z,119.20
2023-02-06T07:10:38.659Z,132.63
2023-02-06T07:13:05.960Z,122.37
2023-02-06T07:15:33.165Z,117.87
2023-02-06T07:18:00.559Z,130.60
2023-02-06T07:20:28.029Z,136.97
2023-02-06T07:22:55.233Z,126.33
2023-02-06T07:25:22.609Z,114.77
2023-02-06T07:27:49.863Z,124.83
2023-02-06T07:30:17.254Z,116.37
2023-02-06T07:32:44.621Z,128.00
2023-02-06T07:35:15.325Z,127.90
2023-02-06T07:37:42.790Z,109.90
2023-02-06T07:40:11.000Z,120.23
2023-02-06T07:42:39.398Z,127.40
2023-02-06T07:45:17.600Z,109.53
2023-02-06T07:47:45.432Z,118.83
2023-02-06T07:50:12.868Z,117.67
2023-02-06T07:52:40.148Z,102.63
2023-02-06T07:55:07.616Z,107.30
2023-02-06T07:57:34.880Z,118.03
2023-02-06T08:00:02.393Z,108.63
2023-02-06T08:02:39.485Z,104.10
2023-02-06T08:05:07.375Z,99.77
2023-02-06T08:07:34.820Z,116.40
2023-02-06T08:10:02.280Z,93.40
2023-02-06T08:12:32.818Z,103.67
2023-02-06T08:15:00.014Z,97.55
2023-02-06T08:17:28.116Z,96.80
2023-02-06T08:19:55.481Z,104.03
2023-02-06T08:22:22.806Z,104.10
2023-02-06T08:24:50.047Z,99.73
2023-02-06T08:27:17.246Z,89.60
2023-02-06T08:29:44.531Z,104.27
2023-02-06T08:32:12.198Z,80.57
2023-02-06T08:34:40.255Z,93.10
2023-02-06T08:37:08.022Z,92.50
2023-02-06T08:39:35.309Z,86.43
2023-02-06T08:42:10.118Z,74.40
2023-02-06T08:44:37.450Z,90.15
2023-02-06T08:47:09.982Z,90.85
2023-02-06T08:49:38.416Z,86.95
2023-02-06T08:52:06.081Z,84.10
2023-02-06T08:54:38.392Z,82.95
2023-02-06T08:57:06.832Z,78.40
2023-02-06T08:59:34.969Z,75.25
2023-02-06T09:02:02.255Z,72.10
2023-02-06T09:04:37.468Z,67.82
2023-02-06T09:07:04.842Z,73.32
2023-02-06T09:09:32.031Z,66.35
2023-02-06T09:12:03.988Z,72.80
2023-02-06T09:14:32.267Z,67.35
2023-02-06T09:16:59.615Z,73.00
2023-02-06T09:19:27.181Z,63.85
2023-02-06T09:21:54.545Z,64.85
2023-02-06T09:24:22.320Z,72.65
2023-02-06T09:26:59.427Z,68.30
2023-02-06T09:29:29.714Z,71.43
2023-02-06T09:32:00.271Z,60.77
2023-02-06T09:34:28.490Z,57.35
2023-02-06T09:36:56.974Z,56.33
2023-02-06T09:39:25.010Z,54.20
2023-02-06T09:42:05.660Z,50.70
2023-02-06T09:47:29.296Z,45.28
2023-02-06T09:50:47.441Z,33.72
2023-02-06T09:54:06.323Z,32.67
2023-02-06T09:56:40.395Z,38.08
2023-02-06T09:59:35.463Z,35.40
2023-02-06T10:02:45.126Z,37.45
2023-02-06T10:05:35.332Z,41.37
2023-02-06T10:08:39.936Z,40.67
2023-02-06T10:11:58.681Z,46.00
2023-02-06T10:14:44.618Z,42.50
2023-02-06T10:17:49.252Z,43.72
2023-02-06T10:20:36.425Z,48.20
2023-02-06T10:23:19.162Z,47.55
2023-02-06T10:26:07.503Z,47.83
2023-02-06T10:28:35.492Z,47.78
2023-02-06T10:31:26.231Z,38.25
2023-02-06T10:34:26.937Z,33.70
2023-02-06T10:37:30.000Z,22.75
2023-02-06T10:40:21.307Z,25.70
2023-02-06T10:43:40.716Z,22.80
2023-02-06T10:46:25.876Z,24.63
2023-02-06T10:49:21.870Z,23.25
2023-02-06T10:52:22.881Z,28.98
2023-02-06T10:57:25.062Z,26.17
2023-02-06T10:59:56.450Z,19.53
2023-02-06T11:02:38.636Z,20.80
2023-02-06T11:05:19.430Z,23.73
2023-02-06T11:07:51.659Z,21.77
2023-02-06T11:10:23.987Z,22.00
2023-02-06T11:13:39.352Z,19.10
2023-02-06T11:16:14.254Z,19.07
2023-02-06T11:18:47.474Z,22.23
2023-02-06T11:21:36.540Z,18.67
2023-02-06T11:24:17.271Z,15.03
2023-02-06T11:27:00.525Z,17.17
2023-02-06T11:29:32.497Z,18.17
2023-02-06T11:32:03.741Z,16.20
2023-02-06T11:34:56.646Z,14.53
2023-02-06T11:37:37.550Z,16.03
2023-02-06T11:43:12.957Z,16.23
2023-02-06T11:45:41.307Z,23.73
2023-02-06T11:48:53.669Z,16.97
2023-02-06T11:51:21.510Z,12.25
2023-02-06T11:54:03.742Z,16.15
2023-02-06T11:56:52.228Z,14.55
2023-02-06T11:59:23.219Z,13.48
2023-02-06T12:01:51.147Z,19.08
2023-02-06T12:04:25.556Z,18.65
2023-02-06T12:07:16.653Z,19.02
2023-02-06T12:09:46.304Z,11.75
2023-02-06T12:12:37.185Z,15.35
2023-02-06T12:18:17.955Z,20.57
2023-02-06T12:21:10.864Z,20.23
2023-02-06T12:23:48.946Z,16.03
2023-02-06T12:26:20.762Z,21.15
2023-02-06T12:29:15.204Z,24.88
2023-02-06T12:32:07.476Z,24.27
2023-02-06T12:35:09.555Z,20.83
2023-02-06T12:37:49.311Z,21.47
2023-02-06T12:40:59.759Z,26.37
2023-02-06T12:43:28.701Z,22.23
2023-02-06T12:46:10.487Z,17.87
2023-02-06T12:48:48.118Z,20.07
2023-02-06T12:51:48.223Z,25.00
2023-02-06T12:54:30.768Z,31.58
2023-02-06T12:57:14.608Z,24.30
2023-02-06T13:00:18.713Z,22.83
2023-02-06T13:03:13.130Z,23.30
2023-02-06T13:05:47.441Z,21.83
2023-02-06T13:08:27.542Z,21.70
2023-02-06T13:11:06.349Z,24.77
2023-02-06T13:13:39.056Z,23.67
2023-02-06T13:16:10.186Z,21.47
2023-02-06T13:18:44.733Z,23.93
2023-02-06T13:21:32.868Z,29.33
2023-02-06T13:24:03.037Z,25.73
2023-02-06T13:26:56.374Z,26.90
2023-02-06T13:29:29.398Z,22.77
2023-02-06T13:32:12.265Z,24.80
2023-02-06T13:34:54.626Z,22.77
2023-02-06T13:37:40.888Z,19.33
2023-02-06T13:40:24.562Z,23.97
2023-02-06T13:43:10.217Z,26.40
2023-02-06T13:46:02.464Z,20.13
2023-02-06T13:48:47.801Z,19.50
2023-02-06T13:51:30.005Z,25.77
2023-02-06T13:54:25.137Z,29.13
2023-02-06T13:57:07.426Z,21.10
2023-02-06T13:59:46.335Z,16.10
2023-02-06T14:02:43.098Z,15.93
2023-02-06T14:05:23.208Z,20.50
2023-02-06T14:08:35.372Z,18.63
2023-02-06T14:11:32.244Z,16.63
2023-02-06T14:14:30.993Z,19.13
2023-02-06T14:17:21.140Z,17.77
2023-02-06T14:20:20.402Z,18.17
2023-02-06T14:23:14.587Z,20.30
2023-02-06T14:26:03.700Z,16.63
2023-02-06T14:28:59.851Z,18.60
2023-02-06T14:32:22.263Z,21.57
2023-02-06T14:35:11.016Z,16.00
2023-02-06T14:38:09.756Z,24.33
2023-02-06T14:40:43.176Z,16.57
2023-02-06T14:43:19.029Z,17.73
2023-02-06T14:46:06.947Z,18.03
2023-02-06T14:49:00.152Z,19.30
2023-02-06T14:51:34.605Z,20.50
2023-02-06T14:54:06.178Z,19.67
2023-02-06T14:56:39.056Z,20.03
2023-02-06T14:59:18.026Z,21.53
2023-02-06T15:01:50.099Z,18.37
2023-02-06T15:04:30.066Z,20.10
2023-02-06T15:07:04.364Z,20.87
2023-02-06T15:09:39.022Z,22.47
2023-02-06T15:12:25.198Z,19.47
2023-02-06T15:15:02.758Z,24.23
2023-02-06T15:17:34.531Z,26.77
2023-02-06T15:20:20.678Z,28.77
2023-02-06T15:22:48.040Z,20.07
2023-02-06T15:25:45.357Z,47.30
2023-02-06T15:28:20.110Z,26.10
2023-02-06T15:30:52.891Z,22.63
2023-02-06T15:33:27.739Z,22.60
2023-02-06T15:35:57.784Z,22.97
2023-02-06T15:38:27.320Z,24.70
2023-02-06T15:41:00.326Z,30.57
2023-02-06T15:43:30.687Z,23.50
2023-02-06T15:46:01.998Z,25.15
2023-02-06T15:48:52.772Z,26.00
2023-02-06T15:53:51.135Z,28.10
2023-02-06T15:56:21.328Z,29.97
2023-02-06T15:58:54.938Z,33.22
2023-02-06T16:01:22.333Z,27.90
2023-02-06T16:03:56.641Z,30.40
2023-02-06T16:06:24.223Z,29.50
2023-02-06T16:08:56.472Z,34.17
2023-02-06T16:11:50.781Z,34.83
2023-02-06T16:14:36.256Z,34.40
2023-02-06T16:17:15.380Z,31.80
2023-02-06T16:19:54.579Z,36.67
2023-02-06T16:22:21.704Z,29.87
2023-02-06T16:24:51.836Z,33.53
2023-02-06T16:27:28.053Z,32.72
2023-02-06T16:29:57.448Z,32.87
2023-02-06T16:32:30.370Z,31.13
2023-02-06T16:34:58.210Z,32.37
2023-02-06T16:37:29.408Z,34.33
2023-02-06T16:39:56.923Z,41.63
2023-02-06T16:42:32.361Z,36.60
2023-02-06T16:45:05.838Z,28.80
2023-02-06T16:47:33.094Z,35.83
2023-02-06T16:50:00.275Z,39.43
2023-02-06T16:52:32.556Z,46.90
2023-02-06T16:55:01.686Z,31.40
2023-02-06T16:57:35.309Z,37.50
2023-02-06T17:00:19.295Z,38.97
2023-02-06T17:02:48.146Z,41.67
2023-02-06T17:05:16.293Z,44.77
2023-02-06T17:07:49.089Z,41.03
2023-02-06T17:10:22.375Z,44.20
2023-02-06T17:12:50.354Z,38.20
2023-02-06T17:15:19.633Z,36.67
2023-02-06T17:17:49.386Z,40.87
2023-02-06T17:20:37.410Z,38.53
2023-02-06T17:23:05.414Z,41.07
2023-02-06T17:25:32.886Z,42.60
2023-02-06T17:28:01.408Z,37.53
2023-02-06T17:30:28.928Z,34.63
2023-02-06T17:32:56.568Z,46.77
2023-02-06T17:35:23.886Z,47.97
2023-02-06T17:37:51.774Z,44.07
2023-02-06T17:40:25.757Z,51.83
2023-02-06T17:42:54.031Z,42.40
2023-02-06T17:45:21.526Z,44.10
2023-02-06T17:47:49.544Z,49.03
2023-02-06T17:50:25.347Z,53.13
2023-02-06T17:52:56.255Z,58.93
2023-02-06T17:55:24.617Z,53.07
2023-02-06T17:57:52.568Z,63.87
2023-02-06T18:00:23.348Z,50.57
2023-02-06T18:02:53.328Z,51.13
2023-02-06T18:05:22.994Z,49.00
2023-02-06T18:07:51.746Z,51.07
2023-02-06T18:10:21.989Z,45.57
2023-02-06T18:12:49.418Z,47.60
2023-02-06T18:15:17.572Z,47.70
2023-02-06T18:17:45.118Z,45.90
2023-02-06T18:20:13.258Z,51.80
2023-02-06T18:22:41.357Z,42.40
2023-02-06T18:25:14.778Z,49.73
2023-02-06T18:27:45.870Z,47.63
2023-02-06T18:30:15.495Z,49.70
2023-02-06T18:32:42.994Z,55.40
2023-02-06T18:35:11.027Z,64.03
2023-02-06T18:37:38.648Z,57.53
2023-02-06T18:40:06.325Z,62.93
2023-02-06T18:42:52.027Z,55.73
2023-02-06T18:45:24.942Z,51.50
2023-02-06T18:47:52.562Z,64.10
2023-02-06T18:50:22.017Z,68.13
2023-02-06T18:52:50.081Z,67.27
2023-02-06T18:55:17.529Z,76.10
2023-02-06T18:57:44.858Z,74.47
2023-02-06T19:00:15.567Z,69.33
2023-02-06T19:02:42.960Z,63.87
2023-02-06T19:05:10.916Z,67.87
2023-02-06T19:07:40.672Z,51.40
2023-02-06T19:10:12.936Z,60.80
2023-02-06T19:12:40.417Z,60.17
2023-02-06T19:15:08.542Z,72.53
2023-02-06T19:17:36.080Z,61.90
2023-02-06T19:20:04.637Z,69.07
2023-02-06T19:22:35.392Z,66.60
2023-02-06T19:25:04.142Z,69.77
2023-02-06T19:27:31.560Z,53.23
2023-02-06T19:29:59.023Z,59.20
2023-02-06T19:32:29.021Z,51.13
2023-02-06T19:34:57.861Z,56.88
2023-02-06T19:37:29.843Z,56.97
2023-02-06T19:39:57.311Z,47.93
2023-02-06T19:42:24.650Z,58.13
2023-02-06T19:44:56.411Z,59.30
2023-02-06T19:47:23.898Z,54.60
2023-02-06T19:49:52.617Z,65.47
2023-02-06T19:52:20.652Z,57.90
2023-02-06T19:54:48.054Z,55.73
2023-02-06T19:57:16.048Z,61.20
2023-02-06T19:59:43.588Z,52.57
2023-02-06T20:02:15.124Z,59.47
2023-02-06T20:04:42.703Z,56.00
2023-02-06T20:07:09.999Z,52.07
2023-02-06T20:09:41.960Z,53.07
2023-02-06T20:12:12.440Z,64.27
2023-02-06T20:17:09.343Z,54.00
2023-02-06T20:19:37.056Z,46.27
2023-02-06T20:22:05.563Z,45.00
2023-02-06T20:24:33.381Z,52.00
2023-02-06T20:27:05.778Z,49.57
2023-02-06T20:29:37.405Z,48.17
2023-02-06T20:32:06.765Z,58.77
2023-02-06T20:34:35.347Z,50.53
2023-02-06T20:37:02.923Z,51.17
2023-02-06T20:39:34.920Z,56.17
2023-02-06T20:42:02.468Z,48.93
2023-02-06T20:44:29.838Z,53.50
2023-02-06T20:46:57.151Z,45.03
2023-02-06T20:49:27.532Z,56.17
2023-02-06T20:51:55.140Z,46.35
2023-02-06T20:54:23.978Z,50.20
2023-02-06T20:56:52.028Z,46.70
2023-02-06T20:59:20.640Z,46.87
2023-02-06T21:01:48.313Z,53.03
2023-02-06T21:04:18.064Z,44.77
2023-02-06T21:06:48.589Z,43.70
2023-02-06T21:09:18.743Z,47.67
2023-02-06T21:11:48.537Z,39.90
2023-02-06T21:14:16.856Z,40.28
2023-02-06T21:16:44.482Z,49.17
2023-02-06T21:19:15.315Z,46.30
2023-02-06T21:21:45.840Z,41.43
2023-02-06T21:24:14.774Z,45.33
2023-02-06T21:26:42.651Z,48.57
2023-02-06T21:29:12.450Z,52.57
2023-02-06T21:31:40.220Z,51.42
2023-02-06T21:34:21.310Z,45.93
2023-02-06T21:36:51.361Z,44.93
2023-02-06T21:39:22.945Z,44.67
2023-02-06T21:41:56.887Z,49.17
2023-02-06T21:44:26.435Z,54.47
2023-02-06T21:46:55.940Z,42.22
2023-02-06T21:49:24.109Z,41.50
2023-02-06T21:51:52.017Z,40.67
2023-02-06T21:54:20.103Z,50.80
2023-02-06T21:56:47.479Z,50.70
2023-02-06T21:59:14.826Z,65.17
2023-02-06T22:01:42.063Z,51.63
2023-02-06T22:04:11.205Z,63.13
2023-02-06T22:06:39.140Z,55.93
2023-02-06T22:09:09.297Z,52.83
2023-02-06T22:11:39.338Z,54.83
2023-02-06T22:14:12.403Z,47.42
2023-02-06T22:16:39.985Z,63.03
2023-02-06T22:19:07.988Z,60.20
2023-02-06T22:21:36.381Z,68.93
2023-02-06T22:24:06.854Z,70.77
2023-02-06T22:29:13.202Z,62.47
2023-02-06T22:31:43.141Z,55.40
2023-02-06T22:34:16.740Z,67.95
2023-02-06T22:36:44.758Z,59.13
2023-02-06T22:39:13.898Z,64.80
2023-02-06T22:41:44.375Z,52.37
2023-02-06T22:46:50.293Z,38.33
2023-02-06T22:49:22.120Z,46.77
2023-02-06T22:51:49.409Z,47.00
2023-02-06T22:54:17.110Z,56.93
2023-02-06T22:56:45.134Z,50.60
2023-02-06T22:59:18.499Z,57.60
2023-02-06T23:01:51.265Z,48.43
2023-02-06T23:04:25.274Z,46.67
2023-02-06T23:06:53.028Z,50.80
2023-02-06T23:09:28.959Z,42.30
2023-02-06T23:11:59.996Z,38.77
2023-02-06T23:14:30.119Z,50.70
2023-02-06T23:16:59.090Z,43.67
2023-02-06T23:19:26.595Z,39.20
2023-02-06T23:21:54.158Z,40.93
2023-02-06T23:24:21.457Z,45.50
2023-02-06T23:26:50.977Z,39.43
2023-02-06T23:29:22.540Z,41.20
2023-02-06T23:31:51.088Z,44.43
2023-02-06T23:34:20.332Z,55.47
2023-02-06T23:36:47.993Z,48.27
2023-02-06T23:39:15.500Z,45.97
2023-02-06T23:41:45.259Z,42.50
2023-02-06T23:44:12.889Z,44.90
2023-02-06T23:46:41.583Z,46.67
2023-02-06T23:49:09.250Z,42.87
2023-02-06T23:51:38.089Z,41.27
2023-02-06T23:54:07.341Z,49.63
2023-02-06T23:56:35.486Z,40.37
2023-02-06T23:59:05.265Z,42.23
